createdAt,value
2023-01-11T05:01:46.100Z,76.51
2023-01-11T05:05:56.007Z,76.74
2023-01-11T05:09:58.621Z,76.64
2023-01-11T05:14:02.292Z,76.71
2023-01-11T05:18:06.655Z,77.06
2023-01-11T05:22:09.374Z,77.84
2023-01-11T05:26:15.601Z,78.26
2023-01-11T05:30:18.672Z,78.56
2023-01-11T05:34:22.567Z,78.77
2023-01-11T05:38:25.273Z,78.61
2023-01-11T05:42:27.787Z,78.87
2023-01-11T05:46:30.667Z,79.00
2023-01-11T05:50:34.505Z,78.83
2023-01-11T05:54:37.143Z,79.26
2023-01-11T05:58:39.681Z,78.79
2023-01-11T06:02:42.295Z,78.82
2023-01-11T06:06:46.250Z,79.32
2023-01-11T06:10:52.359Z,79.67
2023-01-11T06:14:54.927Z,79.89
2023-01-11T06:18:57.448Z,80.05
2023-01-11T06:23:01.314Z,80.96
2023-01-11T06:27:03.830Z,80.88
2023-01-11T06:31:07.422Z,81.21
2023-01-11T06:35:10.362Z,81.08
2023-01-11T06:39:14.195Z,81.45
2023-01-11T06:43:16.688Z,81.25
2023-01-11T06:47:19.192Z,81.65
2023-01-11T06:51:21.696Z,81.18
2023-01-11T06:55:27.377Z,81.44
2023-01-11T06:59:29.922Z,81.22
2023-01-11T07:03:32.565Z,80.97
2023-01-11T07:07:35.066Z,80.81
2023-01-11T07:11:39.675Z,80.57
2023-01-11T07:15:42.215Z,80.80
2023-01-11T07:19:44.787Z,81.06
2023-01-11T07:23:48.712Z,81.37
2023-01-11T07:27:56.915Z,82.06
2023-01-11T07:31:59.455Z,82.04
2023-01-11T07:36:05.307Z,82.33
2023-01-11T07:40:09.099Z,82.77
2023-01-11T07:44:12.922Z,82.70
2023-01-11T07:48:20.568Z,82.46
2023-01-11T07:52:23.158Z,82.63
2023-01-11T07:56:25.680Z,82.40
2023-01-11T08:00:29.712Z,82.35
2023-01-11T08:04:32.236Z,82.16
2023-01-11T08:08:34.741Z,81.96
2023-01-11T08:13:00.982Z,82.19
2023-01-11T08:17:05.193Z,81.70
2023-01-11T08:21:07.703Z,81.96
2023-01-11T08:25:11.339Z,81.99
2023-01-11T08:29:13.973Z,82.07
2023-01-11T08:33:17.803Z,82.47
2023-01-11T08:37:20.434Z,82.62
2023-01-11T08:41:23.061Z,82.76
2023-01-11T08:45:25.935Z,82.73
2023-01-11T08:49:30.447Z,82.52
2023-01-11T08:53:33.084Z,82.49
2023-01-11T08:57:36.547Z,82.74
2023-01-11T09:01:39.062Z,82.48
2023-01-11T09:05:43.077Z,82.46
2023-01-11T09:09:45.596Z,83.04
2023-01-11T09:13:48.075Z,82.99
2023-01-11T09:17:50.743Z,82.95
2023-01-11T09:21:57.678Z,82.76
2023-01-11T09:26:00.187Z,82.94
2023-01-11T09:30:02.751Z,82.50
2023-01-11T09:34:06.912Z,82.47
2023-01-11T09:38:10.898Z,82.50
2023-01-11T09:42:31.581Z,82.64
2023-01-11T09:46:36.944Z,82.14
2023-01-11T09:50:44.115Z,82.44
2023-01-11T09:54:48.184Z,82.33
2023-01-11T09:59:00.708Z,82.69
2023-01-11T10:03:24.133Z,82.18
2023-01-11T10:07:49.769Z,82.71
2023-01-11T10:18:34.381Z,82.90
2023-01-11T10:21:07.638Z,82.65
2023-01-11T10:25:18.685Z,82.72
2023-01-11T10:29:45.969Z,82.63
2023-01-11T10:34:09.165Z,82.76
2023-01-11T10:38:42.713Z,82.51
2023-01-11T10:42:52.150Z,82.61
2023-01-11T10:46:58.083Z,82.70
2023-01-11T10:51:04.442Z,82.80
2023-01-11T10:55:15.033Z,82.58
2023-01-11T10:59:35.673Z,82.68
2023-01-11T11:04:00.089Z,83.17
2023-01-11T11:08:09.851Z,83.23
2023-01-11T11:12:18.997Z,82.79
2023-01-11T11:16:37.583Z,83.33
2023-01-11T11:20:43.946Z,83.10
2023-01-11T11:24:50.643Z,83.31
2023-01-11T11:29:01.607Z,83.01
2023-01-11T11:33:08.438Z,82.43
2023-01-11T11:37:21.532Z,82.36
2023-01-11T11:41:24.726Z,81.99
2023-01-11T11:45:28.379Z,82.37
2023-01-11T11:49:32.028Z,82.18
2023-01-11T11:53:40.059Z,81.47
2023-01-11T11:57:44.941Z,81.60
2023-01-11T12:01:50.720Z,81.68
2023-01-11T12:05:56.544Z,81.80
2023-01-11T12:10:04.124Z,81.75
2023-01-11T12:14:17.921Z,81.63
2023-01-11T12:18:25.831Z,81.39
2023-01-11T12:22:30.146Z,81.00
2023-01-11T12:26:39.335Z,81.18
2023-01-11T12:30:46.684Z,81.05
2023-01-11T12:35:14.875Z,81.10
2023-01-11T12:39:24.288Z,81.12
2023-01-11T12:43:46.870Z,81.05
2023-01-11T12:48:05.569Z,80.75
2023-01-11T12:52:46.217Z,80.48
2023-01-11T12:57:04.620Z,80.92
2023-01-11T13:01:34.359Z,81.66
2023-01-11T13:05:45.003Z,81.61
2023-01-11T13:09:58.121Z,81.48
2023-01-11T13:14:09.578Z,81.26
2023-01-11T13:18:27.716Z,81.29
2023-01-11T13:22:34.492Z,81.07
2023-01-11T13:26:40.181Z,81.34
2023-01-11T13:30:45.733Z,81.53
2023-01-11T13:34:54.005Z,81.30
2023-01-11T13:39:01.463Z,81.62
2023-01-11T13:43:08.673Z,81.74
2023-01-11T13:47:19.178Z,81.93
2023-01-11T13:51:32.051Z,81.56
2023-01-11T13:55:41.651Z,81.72
2023-01-11T13:59:47.558Z,81.39
2023-01-11T14:03:54.433Z,80.97
2023-01-11T14:08:12.877Z,80.61
2023-01-11T14:12:26.313Z,80.56
2023-01-11T14:16:38.788Z,80.29
2023-01-11T14:20:47.940Z,80.28
2023-01-11T14:24:59.027Z,80.46
2023-01-11T14:29:18.419Z,80.27
2023-01-11T14:33:49.568Z,79.76
2023-01-11T14:38:26.124Z,78.94
2023-01-11T14:42:52.897Z,79.24
2023-01-11T14:47:13.012Z,78.64
2023-01-11T14:51:32.583Z,78.30
2023-01-11T14:55:45.174Z,77.93
2023-01-11T14:59:49.122Z,77.40
2023-01-11T15:03:57.328Z,77.19
2023-01-11T15:08:25.928Z,76.43
2023-01-11T15:12:43.283Z,76.30
2023-01-11T15:17:09.567Z,75.79
2023-01-11T15:21:18.336Z,75.62
2023-01-11T15:25:23.088Z,76.02
2023-01-11T15:29:29.122Z,76.40
2023-01-11T15:33:47.239Z,76.35
2023-01-11T15:37:57.142Z,76.01
2023-01-11T15:42:16.272Z,76.03
2023-01-11T15:46:49.465Z,75.96
2023-01-11T15:51:09.719Z,75.96
2023-01-11T15:55:48.326Z,76.29
2023-01-11T16:00:21.378Z,76.43
2023-01-11T16:04:29.237Z,76.73
2023-01-11T16:08:39.124Z,77.00
2023-01-11T16:12:55.415Z,77.60
2023-01-11T16:16:59.183Z,78.18
2023-01-11T16:21:06.142Z,77.77
2023-01-11T16:25:15.555Z,77.76
2023-01-11T16:29:23.830Z,77.60
2023-01-11T16:33:28.725Z,77.25
2023-01-11T16:37:38.248Z,77.35
2023-01-11T16:41:47.735Z,77.24
2023-01-11T16:45:53.978Z,77.13
2023-01-11T16:50:20.686Z,76.96
2023-01-11T16:54:27.108Z,77.24
2023-01-11T16:58:32.650Z,77.72
2023-01-11T17:02:38.697Z,77.51
2023-01-11T17:06:41.424Z,77.15
2023-01-11T17:10:43.947Z,77.19
2023-01-11T17:14:59.513Z,77.37
2023-01-11T17:19:09.172Z,77.96
2023-01-11T17:23:16.198Z,78.40
2023-01-11T17:27:22.398Z,79.53
2023-01-11T17:31:30.534Z,80.63
2023-01-11T17:35:37.856Z,81.64
2023-01-11T17:39:44.053Z,81.86
2023-01-11T17:44:06.494Z,81.48
2023-01-11T17:48:15.426Z,80.98
2023-01-11T17:52:22.374Z,80.89
2023-01-11T17:56:37.545Z,80.24
2023-01-11T18:00:41.778Z,78.97
2023-01-11T18:04:45.840Z,79.43
2023-01-11T18:08:51.009Z,79.17
2023-01-11T18:12:56.169Z,78.13
2023-01-11T18:17:01.993Z,77.41
2023-01-11T18:21:40.003Z,77.31
2023-01-11T18:25:45.834Z,76.47
2023-01-11T18:29:52.451Z,76.63
2023-01-11T18:33:55.076Z,77.61
2023-01-11T18:37:58.994Z,77.46
2023-01-11T18:42:08.503Z,76.71
2023-01-11T18:46:11.197Z,76.65
2023-01-11T18:50:14.146Z,76.26
2023-01-11T18:54:19.197Z,76.35
2023-01-11T18:58:21.747Z,76.88
2023-01-11T19:02:26.905Z,78.01
2023-01-11T19:06:29.420Z,79.39
2023-01-11T19:10:36.145Z,79.37
2023-01-11T19:14:38.681Z,78.88
2023-01-11T19:18:41.373Z,78.59
2023-01-11T19:22:43.858Z,79.27
2023-01-11T19:26:47.768Z,79.68
2023-01-11T19:30:50.428Z,80.89
2023-01-11T19:34:53.503Z,81.56
2023-01-11T19:38:56.074Z,81.87
2023-01-11T19:43:00.616Z,82.02
2023-01-11T19:47:11.607Z,81.93
2023-01-11T19:51:15.178Z,83.33
2023-01-11T19:55:17.983Z,83.54
2023-01-11T19:59:22.301Z,83.85
2023-01-11T20:03:24.839Z,84.44
2023-01-11T20:07:28.055Z,83.62
2023-01-11T20:11:30.637Z,84.00
2023-01-11T20:15:34.563Z,84.00
2023-01-11T20:19:37.123Z,84.56
2023-01-11T20:23:39.670Z,85.15
2023-01-11T20:27:42.188Z,84.86
2023-01-11T20:31:46.340Z,83.76
2023-01-11T20:35:49.378Z,83.36
2023-01-11T20:39:51.915Z,83.51
2023-01-11T20:43:54.421Z,82.69
2023-01-11T20:47:58.313Z,82.16
2023-01-11T20:52:00.832Z,81.65
2023-01-11T20:56:05.591Z,81.93
2023-01-11T21:04:14.672Z,82.51
2023-01-11T21:08:17.139Z,83.95
2023-01-11T21:12:20.297Z,83.74
2023-01-11T21:16:25.351Z,84.42
2023-01-11T21:20:29.256Z,84.46
2023-01-11T21:24:31.820Z,84.76
2023-01-11T21:28:34.345Z,85.18
2023-01-11T21:32:36.848Z,84.95
2023-01-11T21:36:41.293Z,84.90
2023-01-11T21:40:43.926Z,85.21
2023-01-11T21:44:46.485Z,85.33
2023-01-11T21:48:49.026Z,86.25
2023-01-11T21:52:55.673Z,86.74
2023-01-11T21:56:58.190Z,86.50
